sensor_id;sensor_type;location;lat;lon;timestamp;pressure;altitude;pressure_sealevel;temperature
64947;BMP280;51469;52.150;4.682;2022-08-04T00:00:57;101568.22;;;27.74
64947;BMP280;51469;52.150;4.682;2022-08-04T00:03:28;101570.50;;;27.70
64947;BMP280;51469;52.150;4.682;2022-08-04T00:06:03;101569.88;;;27.66
64947;BMP280;51469;52.150;4.682;2022-08-04T00:08:48;101566.44;;;27.62
64947;BMP280;51469;52.150;4.682;2022-08-04T00:11:22;101567.41;;;27.59
64947;BMP280;51469;52.150;4.682;2022-08-04T00:14:17;101565.56;;;27.57
64947;BMP280;51469;52.150;4.682;2022-08-04T00:16:45;101569.06;;;27.52
64947;BMP280;51469;52.150;4.682;2022-08-04T00:19:16;101561.59;;;27.49
64947;BMP280;51469;52.150;4.682;2022-08-04T00:21:55;101569.41;;;27.45
64947;BMP280;51469;52.150;4.682;2022-08-04T00:24:23;101563.78;;;27.45
64947;BMP280;51469;52.150;4.682;2022-08-04T00:26:52;101552.91;;;27.38
64947;BMP280;51469;52.150;4.682;2022-08-04T00:29:17;101555.72;;;27.38
64947;BMP280;51469;52.150;4.682;2022-08-04T00:31:43;101562.63;;;27.37
64947;BMP280;51469;52.150;4.682;2022-08-04T00:34:10;101547.44;;;27.34
64947;BMP280;51469;52.150;4.682;2022-08-04T00:36:36;101549.16;;;27.32
64947;BMP280;51469;52.150;4.682;2022-08-04T00:39:02;101557.31;;;27.30
64947;BMP280;51469;52.150;4.682;2022-08-04T00:47:52;101548.00;;;27.24
64947;BMP280;51469;52.150;4.682;2022-08-04T00:50:23;101544.88;;;27.22
64947;BMP280;51469;52.150;4.682;2022-08-04T00:53:03;101554.59;;;27.21
64947;BMP280;51469;52.150;4.682;2022-08-04T00:58:10;101552.25;;;27.19
64947;BMP280;51469;52.150;4.682;2022-08-04T01:01:05;101545.81;;;27.19
64947;BMP280;51469;52.150;4.682;2022-08-04T01:15:21;101535.94;;;27.23
64947;BMP280;51469;52.150;4.682;2022-08-04T01:18:08;101534.53;;;27.19
64947;BMP280;51469;52.150;4.682;2022-08-04T01:21:06;101539.25;;;27.22
64947;BMP280;51469;52.150;4.682;2022-08-04T01:27:00;101538.94;;;27.20
64947;BMP280;51469;52.150;4.682;2022-08-04T01:29:33;101537.69;;;27.21
64947;BMP280;51469;52.150;4.682;2022-08-04T01:32:00;101540.16;;;27.28
64947;BMP280;51469;52.150;4.682;2022-08-04T01:34:41;101535.75;;;27.27
64947;BMP280;51469;52.150;4.682;2022-08-04T01:37:11;101533.22;;;27.29
64947;BMP280;51469;52.150;4.682;2022-08-04T01:39:50;101527.00;;;27.25
64947;BMP280;51469;52.150;4.682;2022-08-04T01:42:20;101531.09;;;27.24
64947;BMP280;51469;52.150;4.682;2022-08-04T01:44:47;101532.94;;;27.27
64947;BMP280;51469;52.150;4.682;2022-08-04T01:47:16;101528.56;;;27.26
64947;BMP280;51469;52.150;4.682;2022-08-04T01:49:45;101527.75;;;27.25
64947;BMP280;51469;52.150;4.682;2022-08-04T01:52:15;101524.06;;;27.19
64947;BMP280;51469;52.150;4.682;2022-08-04T01:54:42;101529.88;;;27.16
64947;BMP280;51469;52.150;4.682;2022-08-04T01:57:10;101529.28;;;27.12
64947;BMP280;51469;52.150;4.682;2022-08-04T01:59:37;101523.06;;;27.08
64947;BMP280;51469;52.150;4.682;2022-08-04T02:02:04;101529.66;;;27.05
64947;BMP280;51469;52.150;4.682;2022-08-04T02:04:29;101517.94;;;27.06
64947;BMP280;51469;52.150;4.682;2022-08-04T02:17:42;101506.53;;;27.01
64947;BMP280;51469;52.150;4.682;2022-08-04T02:20:24;101502.44;;;27.02
64947;BMP280;51469;52.150;4.682;2022-08-04T02:25:23;101496.81;;;27.02
64947;BMP280;51469;52.150;4.682;2022-08-04T02:27:54;101496.47;;;27.09
64947;BMP280;51469;52.150;4.682;2022-08-04T02:30:20;101496.13;;;27.07
64947;BMP280;51469;52.150;4.682;2022-08-04T02:32:48;101484.59;;;27.05
64947;BMP280;51469;52.150;4.682;2022-08-04T02:35:21;101490.22;;;27.05
64947;BMP280;51469;52.150;4.682;2022-08-04T02:38:52;101491.47;;;27.04
64947;BMP280;51469;52.150;4.682;2022-08-04T02:40:52;101498.38;;;27.03
64947;BMP280;51469;52.150;4.682;2022-08-04T02:43:19;101492.44;;;27.01
64947;BMP280;51469;52.150;4.682;2022-08-04T02:45:45;101494.66;;;26.97
64947;BMP280;51469;52.150;4.682;2022-08-04T02:48:13;101491.56;;;26.95
64947;BMP280;51469;52.150;4.682;2022-08-04T02:50:39;101493.09;;;26.96
64947;BMP280;51469;52.150;4.682;2022-08-04T02:53:07;101485.91;;;26.95
64947;BMP280;51469;52.150;4.682;2022-08-04T02:55:34;101480.56;;;26.97
64947;BMP280;51469;52.150;4.682;2022-08-04T02:58:01;101478.91;;;26.90
64947;BMP280;51469;52.150;4.682;2022-08-04T03:00:27;101482.19;;;26.89
64947;BMP280;51469;52.150;4.682;2022-08-04T03:14:10;101490.16;;;26.90
64947;BMP280;51469;52.150;4.682;2022-08-04T03:28:24;101486.97;;;26.74
64947;BMP280;51469;52.150;4.682;2022-08-04T03:34:33;101478.75;;;26.70
64947;BMP280;51469;52.150;4.682;2022-08-04T03:53:35;101473.44;;;26.63
64947;BMP280;51469;52.150;4.682;2022-08-04T04:08:11;101469.16;;;26.77
64947;BMP280;51469;52.150;4.682;2022-08-04T04:13:58;101464.13;;;26.81
64947;BMP280;51469;52.150;4.682;2022-08-04T04:19:53;101467.41;;;26.79
64947;BMP280;51469;52.150;4.682;2022-08-04T04:22:28;101458.47;;;26.81
64947;BMP280;51469;52.150;4.682;2022-08-04T04:25:04;101459.28;;;26.81
64947;BMP280;51469;52.150;4.682;2022-08-04T04:27:46;101470.91;;;26.89
64947;BMP280;51469;52.150;4.682;2022-08-04T04:36:11;101471.75;;;27.04
64947;BMP280;51469;52.150;4.682;2022-08-04T04:38:40;101469.84;;;27.10
64947;BMP280;51469;52.150;4.682;2022-08-04T04:41:35;101473.91;;;27.09
64947;BMP280;51469;52.150;4.682;2022-08-04T04:44:13;101478.59;;;27.12
64947;BMP280;51469;52.150;4.682;2022-08-04T04:46:49;101473.91;;;27.09
64947;BMP280;51469;52.150;4.682;2022-08-04T04:49:40;101473.53;;;27.16
64947;BMP280;51469;52.150;4.682;2022-08-04T04:53:03;101475.38;;;27.19
64947;BMP280;51469;52.150;4.682;2022-08-04T04:55:23;101476.88;;;27.29
64947;BMP280;51469;52.150;4.682;2022-08-04T04:57:52;101468.34;;;27.38
64947;BMP280;51469;52.150;4.682;2022-08-04T05:00:18;101469.22;;;27.44
64947;BMP280;51469;52.150;4.682;2022-08-04T05:06:09;101469.72;;;27.57
64947;BMP280;51469;52.150;4.682;2022-08-04T05:12:37;101482.47;;;27.66
64947;BMP280;51469;52.150;4.682;2022-08-04T05:14:32;101483.94;;;27.76
64947;BMP280;51469;52.150;4.682;2022-08-04T05:17:05;101486.91;;;27.87
64947;BMP280;51469;52.150;4.682;2022-08-04T05:22:12;101482.75;;;27.97
64947;BMP280;51469;52.150;4.682;2022-08-04T05:24:43;101485.84;;;27.99
64947;BMP280;51469;52.150;4.682;2022-08-04T05:27:17;101492.81;;;28.04
64947;BMP280;51469;52.150;4.682;2022-08-04T05:29:53;101479.81;;;28.06
64947;BMP280;51469;52.150;4.682;2022-08-04T05:32:30;101481.34;;;28.07
64947;BMP280;51469;52.150;4.682;2022-08-04T05:35:02;101478.25;;;28.05
64947;BMP280;51469;52.150;4.682;2022-08-04T05:37:29;101486.31;;;28.12
64947;BMP280;51469;52.150;4.682;2022-08-04T05:40:00;101487.59;;;28.11
64947;BMP280;51469;52.150;4.682;2022-08-04T05:42:29;101490.13;;;28.09
64947;BMP280;51469;52.150;4.682;2022-08-04T05:44:57;101492.63;;;28.07
64947;BMP280;51469;52.150;4.682;2022-08-04T05:47:23;101492.94;;;28.09
64947;BMP280;51469;52.150;4.682;2022-08-04T05:49:49;101495.16;;;28.05
64947;BMP280;51469;52.150;4.682;2022-08-04T05:52:16;101500.56;;;28.03
64947;BMP280;51469;52.150;4.682;2022-08-04T05:54:42;101496.16;;;28.02
64947;BMP280;51469;52.150;4.682;2022-08-04T05:57:09;101490.69;;;27.99
64947;BMP280;51469;52.150;4.682;2022-08-04T05:59:37;101500.25;;;28.01
64947;BMP280;51469;52.150;4.682;2022-08-04T06:02:06;101492.66;;;27.93
64947;BMP280;51469;52.150;4.682;2022-08-04T06:04:42;101495.38;;;27.87
64947;BMP280;51469;52.150;4.682;2022-08-04T06:07:09;101496.97;;;27.88
64947;BMP280;51469;52.150;4.682;2022-08-04T06:09:38;101500.25;;;27.87
64947;BMP280;51469;52.150;4.682;2022-08-04T06:12:17;101503.06;;;27.87
64947;BMP280;51469;52.150;4.682;2022-08-04T06:14:48;101498.50;;;27.89
64947;BMP280;51469;52.150;4.682;2022-08-04T06:17:25;101493.91;;;27.92
64947;BMP280;51469;52.150;4.682;2022-08-04T06:19:55;101501.00;;;28.02
64947;BMP280;51469;52.150;4.682;2022-08-04T06:22:22;101514.81;;;28.14
64947;BMP280;51469;52.150;4.682;2022-08-04T06:24:49;101506.50;;;28.25
64947;BMP280;51469;52.150;4.682;2022-08-04T06:27:16;101502.31;;;28.35
64947;BMP280;51469;52.150;4.682;2022-08-04T06:29:42;101502.47;;;28.46
64947;BMP280;51469;52.150;4.682;2022-08-04T06:32:09;101495.25;;;28.45
64947;BMP280;51469;52.150;4.682;2022-08-04T06:34:50;101499.13;;;28.62
64947;BMP280;51469;52.150;4.682;2022-08-04T06:37:16;101504.91;;;28.73
64947;BMP280;51469;52.150;4.682;2022-08-04T06:39:42;101506.63;;;28.85
64947;BMP280;51469;52.150;4.682;2022-08-04T06:42:08;101503.41;;;28.98
64947;BMP280;51469;52.150;4.682;2022-08-04T06:44:34;101509.16;;;29.03
64947;BMP280;51469;52.150;4.682;2022-08-04T06:47:00;101505.44;;;29.17
64947;BMP280;51469;52.150;4.682;2022-08-04T06:49:27;101512.66;;;29.18
64947;BMP280;51469;52.150;4.682;2022-08-04T06:51:54;101502.59;;;29.37
64947;BMP280;51469;52.150;4.682;2022-08-04T06:54:21;101515.53;;;29.49
64947;BMP280;51469;52.150;4.682;2022-08-04T06:56:47;101516.50;;;29.66
64947;BMP280;51469;52.150;4.682;2022-08-04T06:59:15;101510.72;;;29.86
64947;BMP280;51469;52.150;4.682;2022-08-04T07:01:42;101514.13;;;29.90
64947;BMP280;51469;52.150;4.682;2022-08-04T07:04:09;101505.22;;;29.97
64947;BMP280;51469;52.150;4.682;2022-08-04T07:06:35;101513.31;;;29.84
64947;BMP280;51469;52.150;4.682;2022-08-04T07:09:01;101517.06;;;29.44
64947;BMP280;51469;52.150;4.682;2022-08-04T07:11:27;101518.44;;;28.89
64947;BMP280;51469;52.150;4.682;2022-08-04T07:13:53;101518.03;;;28.56
64947;BMP280;51469;52.150;4.682;2022-08-04T07:16:19;101522.38;;;28.37
64947;BMP280;51469;52.150;4.682;2022-08-04T07:18:46;101524.16;;;28.20
64947;BMP280;51469;52.150;4.682;2022-08-04T07:21:19;101525.47;;;28.39
64947;BMP280;51469;52.150;4.682;2022-08-04T07:23:44;101529.94;;;28.31
64947;BMP280;51469;52.150;4.682;2022-08-04T07:26:10;101534.63;;;28.34
64947;BMP280;51469;52.150;4.682;2022-08-04T07:28:35;101536.56;;;28.43
64947;BMP280;51469;52.150;4.682;2022-08-04T07:31:01;101534.63;;;28.34
64947;BMP280;51469;52.150;4.682;2022-08-04T07:33:27;101541.53;;;28.33
64947;BMP280;51469;52.150;4.682;2022-08-04T07:35:55;101550.22;;;28.44
64947;BMP280;51469;52.150;4.682;2022-08-04T07:38:21;101551.28;;;28.32
64947;BMP280;51469;52.150;4.682;2022-08-04T07:40:47;101550.75;;;28.48
64947;BMP280;51469;52.150;4.682;2022-08-04T07:43:16;101556.00;;;28.55
64947;BMP280;51469;52.150;4.682;2022-08-04T07:45:41;101546.53;;;28.58
64947;BMP280;51469;52.150;4.682;2022-08-04T07:48:08;101546.44;;;28.67
64947;BMP280;51469;52.150;4.682;2022-08-04T07:50:34;101563.38;;;28.67
64947;BMP280;51469;52.150;4.682;2022-08-04T07:53:00;101549.31;;;28.73
64947;BMP280;51469;52.150;4.682;2022-08-04T07:55:28;101558.16;;;28.80
64947;BMP280;51469;52.150;4.682;2022-08-04T07:57:53;101562.53;;;28.81
64947;BMP280;51469;52.150;4.682;2022-08-04T08:00:18;101565.94;;;28.85
64947;BMP280;51469;52.150;4.682;2022-08-04T08:02:47;101556.59;;;28.99
64947;BMP280;51469;52.150;4.682;2022-08-04T08:05:14;101561.69;;;29.15
64947;BMP280;51469;52.150;4.682;2022-08-04T08:07:41;101570.34;;;29.26
64947;BMP280;51469;52.150;4.682;2022-08-04T08:10:12;101566.19;;;29.47
64947;BMP280;51469;52.150;4.682;2022-08-04T08:12:38;101565.78;;;29.34
64947;BMP280;51469;52.150;4.682;2022-08-04T08:15:06;101567.25;;;29.49
64947;BMP280;51469;52.150;4.682;2022-08-04T08:17:32;101570.69;;;29.59
64947;BMP280;51469;52.150;4.682;2022-08-04T08:19:57;101564.03;;;29.62
64947;BMP280;51469;52.150;4.682;2022-08-04T08:22:23;101565.59;;;29.63
64947;BMP280;51469;52.150;4.682;2022-08-04T08:24:48;101559.47;;;29.70
64947;BMP280;51469;52.150;4.682;2022-08-04T08:27:14;101575.13;;;29.91
64947;BMP280;51469;52.150;4.682;2022-08-04T08:29:40;101566.34;;;30.20
64947;BMP280;51469;52.150;4.682;2022-08-04T08:32:08;101573.47;;;30.41
64947;BMP280;51469;52.150;4.682;2022-08-04T08:34:37;101576.63;;;30.54
64947;BMP280;51469;52.150;4.682;2022-08-04T08:37:14;101572.03;;;30.62
64947;BMP280;51469;52.150;4.682;2022-08-04T08:39:59;101574.53;;;31.01
64947;BMP280;51469;52.150;4.682;2022-08-04T08:53:37;101558.41;;;31.29
64947;BMP280;51469;52.150;4.682;2022-08-04T08:56:35;101566.44;;;31.53
64947;BMP280;51469;52.150;4.682;2022-08-04T08:59:26;101564.13;;;31.79
64947;BMP280;51469;52.150;4.682;2022-08-04T09:04:47;101568.78;;;32.09
64947;BMP280;51469;52.150;4.682;2022-08-04T09:07:47;101571.09;;;32.22
64947;BMP280;51469;52.150;4.682;2022-08-04T09:10:24;101572.13;;;32.19
64947;BMP280;51469;52.150;4.682;2022-08-04T09:13:03;101577.31;;;31.98
64947;BMP280;51469;52.150;4.682;2022-08-04T09:15:35;101572.41;;;32.04
64947;BMP280;51469;52.150;4.682;2022-08-04T09:18:06;101577.06;;;31.96
64947;BMP280;51469;52.150;4.682;2022-08-04T09:20:39;101582.22;;;32.03
64947;BMP280;51469;52.150;4.682;2022-08-04T09:23:19;101572.13;;;32.13
64947;BMP280;51469;52.150;4.682;2022-08-04T09:28:30;101582.94;;;32.31
64947;BMP280;51469;52.150;4.682;2022-08-04T09:36:03;101587.38;;;32.10
64947;BMP280;51469;52.150;4.682;2022-08-04T09:38:56;101597.69;;;32.02
64947;BMP280;51469;52.150;4.682;2022-08-04T09:42:00;101607.50;;;32.01
64947;BMP280;51469;52.150;4.682;2022-08-04T09:44:51;101609.06;;;31.91
64947;BMP280;51469;52.150;4.682;2022-08-04T09:55:28;101626.50;;;31.35
64947;BMP280;51469;52.150;4.682;2022-08-04T09:58:04;101622.09;;;31.34
64947;BMP280;51469;52.150;4.682;2022-08-04T10:00:43;101624.41;;;31.24
64947;BMP280;51469;52.150;4.682;2022-08-04T10:03:11;101625.22;;;31.36
64947;BMP280;51469;52.150;4.682;2022-08-04T10:11:32;101632.66;;;31.39
64947;BMP280;51469;52.150;4.682;2022-08-04T10:14:04;101638.84;;;31.32
64947;BMP280;51469;52.150;4.682;2022-08-04T10:16:45;101642.72;;;31.34
64947;BMP280;51469;52.150;4.682;2022-08-04T10:24:59;101645.56;;;31.34
64947;BMP280;51469;52.150;4.682;2022-08-04T10:30:04;101640.34;;;31.22
64947;BMP280;51469;52.150;4.682;2022-08-04T10:35:50;101662.56;;;31.23
64947;BMP280;51469;52.150;4.682;2022-08-04T10:38:22;101659.53;;;31.43
64947;BMP280;51469;52.150;4.682;2022-08-04T10:46:43;101654.72;;;31.07
64947;BMP280;51469;52.150;4.682;2022-08-04T10:49:33;101659.22;;;31.25
64947;BMP280;51469;52.150;4.682;2022-08-04T10:54:56;101652.66;;;31.88
64947;BMP280;51469;52.150;4.682;2022-08-04T10:57:35;101666.88;;;31.99
64947;BMP280;51469;52.150;4.682;2022-08-04T11:00:24;101664.50;;;31.81
64947;BMP280;51469;52.150;4.682;2022-08-04T11:05:47;101666.28;;;31.73
64947;BMP280;51469;52.150;4.682;2022-08-04T11:08:14;101661.16;;;31.72
64947;BMP280;51469;52.150;4.682;2022-08-04T11:13:37;101664.28;;;32.01
64947;BMP280;51469;52.150;4.682;2022-08-04T11:16:09;101659.13;;;32.05
64947;BMP280;51469;52.150;4.682;2022-08-04T11:18:46;101655.50;;;32.16
64947;BMP280;51469;52.150;4.682;2022-08-04T11:21:25;101659.91;;;32.28
64947;BMP280;51469;52.150;4.682;2022-08-04T11:24:10;101658.09;;;32.41
64947;BMP280;51469;52.150;4.682;2022-08-04T11:26:48;101656.53;;;32.40
64947;BMP280;51469;52.150;4.682;2022-08-04T11:29:25;101657.31;;;32.35
64947;BMP280;51469;52.150;4.682;2022-08-04T11:31:56;101659.63;;;32.42
64947;BMP280;51469;52.150;4.682;2022-08-04T11:34:25;101665.59;;;32.28
64947;BMP280;51469;52.150;4.682;2022-08-04T11:39:59;101666.13;;;32.10
64947;BMP280;51469;52.150;4.682;2022-08-04T11:42:34;101666.88;;;32.37
64947;BMP280;51469;52.150;4.682;2022-08-04T11:45:06;101656.28;;;32.54
64947;BMP280;51469;52.150;4.682;2022-08-04T11:50:17;101672.66;;;33.05
64947;BMP280;51469;52.150;4.682;2022-08-04T11:52:45;101662.00;;;33.22
64947;BMP280;51469;52.150;4.682;2022-08-04T11:55:14;101653.94;;;33.32
64947;BMP280;51469;52.150;4.682;2022-08-04T11:57:40;101662.38;;;33.43
64947;BMP280;51469;52.150;4.682;2022-08-04T12:00:08;101662.06;;;33.52
64947;BMP280;51469;52.150;4.682;2022-08-04T12:05:09;101658.66;;;33.58
64947;BMP280;51469;52.150;4.682;2022-08-04T12:10:50;101657.69;;;33.51
64947;BMP280;51469;52.150;4.682;2022-08-04T12:13:27;101660.78;;;33.53
64947;BMP280;51469;52.150;4.682;2022-08-04T12:19:01;101664.44;;;33.48
64947;BMP280;51469;52.150;4.682;2022-08-04T12:21:48;101669.38;;;33.47
64947;BMP280;51469;52.150;4.682;2022-08-04T12:24:21;101673.72;;;33.53
64947;BMP280;51469;52.150;4.682;2022-08-04T12:27:15;101679.47;;;33.43
64947;BMP280;51469;52.150;4.682;2022-08-04T12:29:41;101681.78;;;33.50
64947;BMP280;51469;52.150;4.682;2022-08-04T12:32:31;101678.94;;;33.50
64947;BMP280;51469;52.150;4.682;2022-08-04T12:35:12;101689.19;;;33.63
64947;BMP280;51469;52.150;4.682;2022-08-04T12:37:47;101684.09;;;33.46
64947;BMP280;51469;52.150;4.682;2022-08-04T12:40:21;101686.16;;;33.51
64947;BMP280;51469;52.150;4.682;2022-08-04T12:45:26;101688.19;;;33.50
64947;BMP280;51469;52.150;4.682;2022-08-04T12:47:56;101698.59;;;33.48
64947;BMP280;51469;52.150;4.682;2022-08-04T12:50:22;101693.88;;;33.61
64947;BMP280;51469;52.150;4.682;2022-08-04T12:52:55;101697.28;;;33.49
64947;BMP280;51469;52.150;4.682;2022-08-04T12:55:24;101694.44;;;33.49
64947;BMP280;51469;52.150;4.682;2022-08-04T12:57:50;101693.44;;;33.41
64947;BMP280;51469;52.150;4.682;2022-08-04T13:00:34;101696.28;;;33.46
64947;BMP280;51469;52.150;4.682;2022-08-04T13:03:04;101689.22;;;33.53
64947;BMP280;51469;52.150;4.682;2022-08-04T13:05:32;101689.06;;;33.40
64947;BMP280;51469;52.150;4.682;2022-08-04T13:07:58;101697.63;;;33.40
64947;BMP280;51469;52.150;4.682;2022-08-04T13:10:25;101690.03;;;33.48
64947;BMP280;51469;52.150;4.682;2022-08-04T13:12:55;101697.81;;;33.47
64947;BMP280;51469;52.150;4.682;2022-08-04T13:15:22;101692.88;;;33.48
64947;BMP280;51469;52.150;4.682;2022-08-04T13:18:09;101691.22;;;33.68
64947;BMP280;51469;52.150;4.682;2022-08-04T13:20:38;101703.75;;;33.89
64947;BMP280;51469;52.150;4.682;2022-08-04T13:23:09;101704.00;;;33.91
64947;BMP280;51469;52.150;4.682;2022-08-04T13:25:43;101707.72;;;33.75
64947;BMP280;51469;52.150;4.682;2022-08-04T13:28:26;101707.97;;;33.77
64947;BMP280;51469;52.150;4.682;2022-08-04T13:30:55;101712.44;;;33.67
64947;BMP280;51469;52.150;4.682;2022-08-04T13:33:26;101709.91;;;33.58
64947;BMP280;51469;52.150;4.682;2022-08-04T13:35:55;101716.09;;;33.62
64947;BMP280;51469;52.150;4.682;2022-08-04T13:38:23;101712.75;;;33.58
64947;BMP280;51469;52.150;4.682;2022-08-04T13:40:51;101720.72;;;33.65
64947;BMP280;51469;52.150;4.682;2022-08-04T13:43:26;101718.56;;;33.82
64947;BMP280;51469;52.150;4.682;2022-08-04T13:45:59;101708.78;;;33.72
64947;BMP280;51469;52.150;4.682;2022-08-04T13:48:30;101708.72;;;33.83
64947;BMP280;51469;52.150;4.682;2022-08-04T13:50:57;101714.34;;;33.94
64947;BMP280;51469;52.150;4.682;2022-08-04T13:53:30;101712.06;;;33.87
64947;BMP280;51469;52.150;4.682;2022-08-04T13:55:56;101711.69;;;33.67
64947;BMP280;51469;52.150;4.682;2022-08-04T13:58:24;101719.25;;;33.53
64947;BMP280;51469;52.150;4.682;2022-08-04T14:00:53;101724.94;;;33.53
64947;BMP280;51469;52.150;4.682;2022-08-04T14:03:30;101713.16;;;33.33
64947;BMP280;51469;52.150;4.682;2022-08-04T14:08:46;101725.75;;;32.59
64947;BMP280;51469;52.150;4.682;2022-08-04T14:11:12;101724.19;;;32.36
64947;BMP280;51469;52.150;4.682;2022-08-04T14:13:38;101719.56;;;32.22
64947;BMP280;51469;52.150;4.682;2022-08-04T14:16:16;101736.81;;;32.08
64947;BMP280;51469;52.150;4.682;2022-08-04T14:18:41;101736.53;;;31.95
64947;BMP280;51469;52.150;4.682;2022-08-04T14:21:10;101730.09;;;31.89
64947;BMP280;51469;52.150;4.682;2022-08-04T14:23:49;101733.44;;;31.87
64947;BMP280;51469;52.150;4.682;2022-08-04T14:26:32;101735.00;;;31.88
64947;BMP280;51469;52.150;4.682;2022-08-04T14:29:13;101736.56;;;32.11
64947;BMP280;51469;52.150;4.682;2022-08-04T14:31:42;101737.63;;;32.19
64947;BMP280;51469;52.150;4.682;2022-08-04T14:34:08;101744.81;;;31.98
64947;BMP280;51469;52.150;4.682;2022-08-04T14:36:42;101754.13;;;32.04
64947;BMP280;51469;52.150;4.682;2022-08-04T14:39:08;101739.69;;;32.57
64947;BMP280;51469;52.150;4.682;2022-08-04T14:41:44;101734.72;;;33.01
64947;BMP280;51469;52.150;4.682;2022-08-04T14:44:11;101741.09;;;33.35
64947;BMP280;51469;52.150;4.682;2022-08-04T14:46:49;101739.94;;;33.59
64947;BMP280;51469;52.150;4.682;2022-08-04T14:49:16;101735.91;;;33.28
64947;BMP280;51469;52.150;4.682;2022-08-04T14:51:51;101744.56;;;33.62
64947;BMP280;51469;52.150;4.682;2022-08-04T14:54:25;101732.31;;;33.78
64947;BMP280;51469;52.150;4.682;2022-08-04T14:56:54;101738.25;;;33.80
64947;BMP280;51469;52.150;4.682;2022-08-04T14:59:20;101745.56;;;33.70
64947;BMP280;51469;52.150;4.682;2022-08-04T15:01:48;101755.72;;;33.55
64947;BMP280;51469;52.150;4.682;2022-08-04T15:04:13;101745.69;;;33.43
64947;BMP280;51469;52.150;4.682;2022-08-04T15:06:39;101749.56;;;33.40
64947;BMP280;51469;52.150;4.682;2022-08-04T15:09:07;101749.81;;;33.48
64947;BMP280;51469;52.150;4.682;2022-08-04T15:11:34;101746.97;;;33.48
64947;BMP280;51469;52.150;4.682;2022-08-04T15:14:01;101742.34;;;33.39
64947;BMP280;51469;52.150;4.682;2022-08-04T15:16:30;101749.09;;;33.31
64947;BMP280;51469;52.150;4.682;2022-08-04T15:18:57;101747.03;;;33.31
64947;BMP280;51469;52.150;4.682;2022-08-04T15:21:23;101743.19;;;33.23
64947;BMP280;51469;52.150;4.682;2022-08-04T15:23:50;101748.84;;;33.29
64947;BMP280;51469;52.150;4.682;2022-08-04T15:26:21;101749.31;;;33.44
64947;BMP280;51469;52.150;4.682;2022-08-04T15:28:55;101744.91;;;33.48
64947;BMP280;51469;52.150;4.682;2022-08-04T15:31:23;101752.19;;;33.38
64947;BMP280;51469;52.150;4.682;2022-08-04T15:33:49;101752.72;;;33.37
64947;BMP280;51469;52.150;4.682;2022-08-04T15:36:21;101757.84;;;33.49
64947;BMP280;51469;52.150;4.682;2022-08-04T15:49:27;101755.16;;;33.67
64947;BMP280;51469;52.150;4.682;2022-08-04T15:52:00;101761.13;;;33.58
64947;BMP280;51469;52.150;4.682;2022-08-04T15:54:26;101755.69;;;33.60
64947;BMP280;51469;52.150;4.682;2022-08-04T15:56:51;101752.28;;;33.67
64947;BMP280;51469;52.150;4.682;2022-08-04T16:02:42;101760.66;;;33.55
64947;BMP280;51469;52.150;4.682;2022-08-04T16:07:59;101767.38;;;33.52
64947;BMP280;51469;52.150;4.682;2022-08-04T16:13:13;101766.63;;;33.40
64947;BMP280;51469;52.150;4.682;2022-08-04T16:20:53;101766.44;;;33.27
64947;BMP280;51469;52.150;4.682;2022-08-04T16:25:45;101767.97;;;33.45
64947;BMP280;51469;52.150;4.682;2022-08-04T16:31:02;101759.78;;;33.14
64947;BMP280;51469;52.150;4.682;2022-08-04T16:33:29;101776.09;;;32.91
64947;BMP280;51469;52.150;4.682;2022-08-04T16:35:56;101765.53;;;32.81
64947;BMP280;51469;52.150;4.682;2022-08-04T16:38:21;101772.53;;;32.63
64947;BMP280;51469;52.150;4.682;2022-08-04T16:40:55;101761.91;;;32.42
64947;BMP280;51469;52.150;4.682;2022-08-04T16:43:21;101771.69;;;32.19
64947;BMP280;51469;52.150;4.682;2022-08-04T16:45:54;101762.38;;;32.02
64947;BMP280;51469;52.150;4.682;2022-08-04T16:48:26;101763.13;;;31.81
64947;BMP280;51469;52.150;4.682;2022-08-04T16:50:57;101763.84;;;31.81
64947;BMP280;51469;52.150;4.682;2022-08-04T16:53:25;101758.16;;;31.81
64947;BMP280;51469;52.150;4.682;2022-08-04T16:55:53;101762.59;;;31.88
64947;BMP280;51469;52.150;4.682;2022-08-04T16:58:44;101756.34;;;31.73
64947;BMP280;51469;52.150;4.682;2022-08-04T17:01:13;101754.06;;;31.82
64947;BMP280;51469;52.150;4.682;2022-08-04T17:03:49;101758.47;;;31.83
64947;BMP280;51469;52.150;4.682;2022-08-04T17:06:14;101759.97;;;31.79
64947;BMP280;51469;52.150;4.682;2022-08-04T17:08:41;101761.03;;;31.87
64947;BMP280;51469;52.150;4.682;2022-08-04T17:11:07;101754.59;;;31.86
64947;BMP280;51469;52.150;4.682;2022-08-04T17:13:42;101761.00;;;31.81
64947;BMP280;51469;52.150;4.682;2022-08-04T17:16:11;101752.50;;;31.81
64947;BMP280;51469;52.150;4.682;2022-08-04T17:18:42;101751.44;;;31.73
64947;BMP280;51469;52.150;4.682;2022-08-04T17:23:46;101751.38;;;31.51
64947;BMP280;51469;52.150;4.682;2022-08-04T17:26:21;101750.03;;;31.36
64947;BMP280;51469;52.150;4.682;2022-08-04T17:28:48;101752.81;;;31.30
64947;BMP280;51469;52.150;4.682;2022-08-04T17:31:15;101750.19;;;31.21
64947;BMP280;51469;52.150;4.682;2022-08-04T17:33:46;101743.94;;;31.17
64947;BMP280;51469;52.150;4.682;2022-08-04T17:36:13;101753.19;;;31.12
64947;BMP280;51469;52.150;4.682;2022-08-04T17:38:45;101753.88;;;30.96
64947;BMP280;51469;52.150;4.682;2022-08-04T17:41:12;101750.19;;;30.85
64947;BMP280;51469;52.150;4.682;2022-08-04T17:43:56;101762.78;;;30.79
64947;BMP280;51469;52.150;4.682;2022-08-04T17:51:56;101749.78;;;30.67
64947;BMP280;51469;52.150;4.682;2022-08-04T17:56:52;101748.03;;;30.44
64947;BMP280;51469;52.150;4.682;2022-08-04T17:59:21;101748.59;;;30.48
64947;BMP280;51469;52.150;4.682;2022-08-04T18:07:11;101774.31;;;29.99
64947;BMP280;51469;52.150;4.682;2022-08-04T18:09:38;101773.63;;;29.84
64947;BMP280;51469;52.150;4.682;2022-08-04T18:12:09;101768.69;;;29.79
64947;BMP280;51469;52.150;4.682;2022-08-04T18:14:47;101786.22;;;29.63
64947;BMP280;51469;52.150;4.682;2022-08-04T18:17:14;101788.88;;;29.52
64947;BMP280;51469;52.150;4.682;2022-08-04T18:19:50;101790.56;;;29.44
64947;BMP280;51469;52.150;4.682;2022-08-04T18:22:19;101784.88;;;29.24